createdAt,value
2022-08-07T00:00:40.021Z,25.56
2022-08-07T00:02:44.418Z,25.53
2022-08-07T00:04:46.532Z,25.48
2022-08-07T00:06:51.620Z,25.47
2022-08-07T00:08:54.385Z,25.49
2022-08-07T00:10:57.435Z,25.51
2022-08-07T00:13:23.946Z,25.51
2022-08-07T00:15:25.876Z,25.52
2022-08-07T00:17:40.541Z,25.57
2022-08-07T00:20:00.447Z,25.55
2022-08-07T00:22:04.775Z,25.52
2022-08-07T00:24:06.916Z,25.56
2022-08-07T00:26:13.008Z,25.57
2022-08-07T00:28:21.955Z,25.60
2022-08-07T00:30:26.958Z,25.59
2022-08-07T00:32:30.080Z,25.57
2022-08-07T00:34:36.774Z,25.53
2022-08-07T00:36:43.178Z,25.50
2022-08-07T00:38:45.388Z,25.42
2022-08-07T00:40:47.550Z,25.38
2022-08-07T00:42:50.340Z,25.29
2022-08-07T00:44:54.755Z,25.23
2022-08-07T00:46:56.755Z,25.26
2022-08-07T00:49:02.139Z,25.24
2022-08-07T00:51:05.560Z,25.23
2022-08-07T00:53:09.246Z,25.23
2022-08-07T00:55:12.896Z,25.22
2022-08-07T00:57:19.791Z,25.15
2022-08-07T00:59:35.354Z,25.13
2022-08-07T01:01:44.146Z,25.11
2022-08-07T01:03:57.349Z,25.14
2022-08-07T01:06:03.312Z,25.16
2022-08-07T01:08:06.162Z,25.15
2022-08-07T01:10:12.557Z,25.14
2022-08-07T01:12:29.092Z,25.07
2022-08-07T01:14:32.352Z,24.80
2022-08-07T01:16:43.066Z,24.65
2022-08-07T01:18:48.769Z,24.36
2022-08-07T01:21:22.474Z,24.00
2022-08-07T01:23:38.089Z,23.75
2022-08-07T01:25:56.197Z,23.42
2022-08-07T01:27:58.568Z,23.11
2022-08-07T01:30:02.329Z,23.29
2022-08-07T01:32:12.357Z,23.38
2022-08-07T01:34:18.953Z,23.48
2022-08-07T01:36:21.495Z,23.65
2022-08-07T01:38:35.687Z,23.83
2022-08-07T01:40:38.740Z,24.02
2022-08-07T01:42:56.952Z,24.07
2022-08-07T01:45:00.912Z,24.13
2022-08-07T01:47:14.302Z,24.18
2022-08-07T01:49:16.483Z,24.29
2022-08-07T01:52:03.731Z,24.37
2022-08-07T01:54:09.229Z,24.38
2022-08-07T01:56:38.794Z,24.24
2022-08-07T01:58:45.466Z,24.05
2022-08-07T02:00:50.873Z,23.96
2022-08-07T02:03:18.553Z,23.73
2022-08-07T02:05:43.233Z,23.45
2022-08-07T02:07:52.892Z,23.15
2022-08-07T02:09:58.666Z,23.20
2022-08-07T02:12:17.660Z,23.24
2022-08-07T02:14:40.357Z,23.38
2022-08-07T02:16:42.631Z,23.56
2022-08-07T02:18:47.321Z,23.68
2022-08-07T02:20:51.950Z,23.81
2022-08-07T02:23:01.898Z,23.90
2022-08-07T02:25:07.207Z,23.97
2022-08-07T02:27:19.419Z,23.96
2022-08-07T02:29:21.854Z,23.96
2022-08-07T02:31:28.687Z,23.97
2022-08-07T02:33:42.286Z,23.92
2022-08-07T02:36:30.487Z,23.87
2022-08-07T02:38:17.183Z,23.85
2022-08-07T02:40:30.742Z,23.79
2022-08-07T02:42:37.587Z,23.73
2022-08-07T02:44:48.076Z,23.74
2022-08-07T02:46:53.052Z,23.75
2022-08-07T02:48:55.435Z,23.78
2022-08-07T02:50:58.036Z,23.73
2022-08-07T02:53:06.129Z,23.74
2022-08-07T02:55:28.297Z,23.74
2022-08-07T02:57:46.752Z,23.70
2022-08-07T02:59:54.879Z,23.71
2022-08-07T03:01:57.884Z,23.75
2022-08-07T03:04:06.907Z,23.78
2022-08-07T03:06:16.653Z,23.82
2022-08-07T03:08:29.255Z,23.87
2022-08-07T03:10:31.947Z,23.88
2022-08-07T03:12:34.739Z,23.87
2022-08-07T03:14:40.027Z,23.88
2022-08-07T03:16:42.909Z,23.87
2022-08-07T03:18:44.656Z,23.83
2022-08-07T03:20:49.995Z,23.70
2022-08-07T03:22:55.319Z,23.71
2022-08-07T03:24:57.387Z,23.57
2022-08-07T03:27:04.334Z,23.50
2022-08-07T03:29:10.545Z,23.52
2022-08-07T03:31:19.358Z,23.27
2022-08-07T03:33:27.231Z,22.90
2022-08-07T03:35:37.921Z,22.76
2022-08-07T03:37:54.096Z,22.77
2022-08-07T03:39:59.582Z,22.86
2022-08-07T03:42:20.013Z,22.75
2022-08-07T03:44:34.485Z,22.70
2022-08-07T03:47:10.886Z,22.42
2022-08-07T03:49:02.892Z,22.45
2022-08-07T03:51:05.506Z,22.56
2022-08-07T03:53:12.344Z,22.63
2022-08-07T03:55:14.792Z,22.60
2022-08-07T03:58:33.954Z,22.63
2022-08-07T03:59:46.804Z,22.78
2022-08-07T04:02:03.234Z,23.03
2022-08-07T04:04:05.601Z,23.24
2022-08-07T04:06:36.121Z,23.42
2022-08-07T04:08:34.217Z,23.62
2022-08-07T04:10:38.822Z,23.77
2022-08-07T04:12:41.571Z,23.82
2022-08-07T04:14:46.297Z,23.99
2022-08-07T04:16:58.146Z,24.12
2022-08-07T04:19:12.431Z,24.22
2022-08-07T04:21:17.037Z,24.25
2022-08-07T04:23:20.926Z,24.26
2022-08-07T04:25:24.058Z,24.28
2022-08-07T04:27:35.694Z,24.28
2022-08-07T04:29:58.862Z,24.26
2022-08-07T04:32:09.884Z,24.25
2022-08-07T04:34:16.482Z,24.20
2022-08-07T04:36:26.013Z,24.20
2022-08-07T04:38:28.314Z,24.22
2022-08-07T04:40:32.246Z,24.27
2022-08-07T04:42:34.619Z,24.30
2022-08-07T04:44:37.665Z,24.29
2022-08-07T04:47:08.478Z,24.10
2022-08-07T04:49:47.486Z,24.00
2022-08-07T04:52:06.095Z,24.05
2022-08-07T04:54:29.968Z,24.12
2022-08-07T04:58:16.567Z,24.21
2022-08-07T05:00:11.397Z,24.33
2022-08-07T05:02:26.435Z,24.43
2022-08-07T05:04:57.437Z,24.51
2022-08-07T05:07:20.273Z,24.62
2022-08-07T05:10:07.876Z,24.62
2022-08-07T05:12:26.746Z,24.69
2022-08-07T05:14:51.942Z,24.72
2022-08-07T05:17:01.116Z,24.81
2022-08-07T05:19:12.756Z,24.98
2022-08-07T05:21:14.909Z,25.07
2022-08-07T05:23:29.102Z,25.18
2022-08-07T05:25:54.468Z,25.11
2022-08-07T05:28:15.928Z,24.94
2022-08-07T05:30:29.978Z,24.94
2022-08-07T05:32:32.807Z,25.12
2022-08-07T05:34:37.183Z,25.21
2022-08-07T05:36:40.887Z,25.27
2022-08-07T05:38:59.823Z,25.49
2022-08-07T05:41:12.090Z,25.61
2022-08-07T05:43:17.076Z,25.72
2022-08-07T05:45:47.037Z,25.82
2022-08-07T05:48:01.218Z,25.53
2022-08-07T05:50:05.847Z,25.20
2022-08-07T05:52:08.586Z,25.34
2022-08-07T05:54:44.642Z,25.42
2022-08-07T05:56:37.476Z,25.61
2022-08-07T05:58:49.278Z,25.83
2022-08-07T06:03:15.552Z,25.82
2022-08-07T06:05:19.745Z,25.39
2022-08-07T06:08:09.061Z,25.33
2022-08-07T06:10:05.011Z,25.50
2022-08-07T06:12:08.642Z,25.57
2022-08-07T06:14:20.811Z,25.60
2022-08-07T06:16:23.821Z,25.42
2022-08-07T06:18:32.721Z,25.49
2022-08-07T06:20:50.521Z,25.70
2022-08-07T06:23:25.116Z,25.85
2022-08-07T06:25:22.851Z,25.78
2022-08-07T06:27:43.768Z,25.75
2022-08-07T06:29:47.868Z,25.97
2022-08-07T06:31:51.938Z,26.09
2022-08-07T06:33:54.727Z,26.02
2022-08-07T06:36:06.655Z,26.03
2022-08-07T06:38:19.953Z,26.08
2022-08-07T06:40:23.145Z,26.24
2022-08-07T06:42:37.615Z,26.34
2022-08-07T06:44:39.769Z,26.25
2022-08-07T06:46:41.905Z,26.12
2022-08-07T06:48:44.921Z,26.01
2022-08-07T06:50:48.567Z,26.10
2022-08-07T06:52:53.899Z,25.95
2022-08-07T06:55:33.424Z,25.81
2022-08-07T06:57:21.121Z,25.65
2022-08-07T07:00:14.999Z,25.67
2022-08-07T07:02:06.215Z,26.10
2022-08-07T07:04:28.656Z,26.29
2022-08-07T07:06:32.681Z,26.57
2022-08-07T07:08:46.811Z,26.74
2022-08-07T07:10:54.873Z,26.88
2022-08-07T07:13:15.456Z,26.85
2022-08-07T07:15:32.540Z,26.98
2022-08-07T07:17:50.576Z,26.99
2022-08-07T07:19:59.123Z,27.00
2022-08-07T07:22:04.824Z,26.45
2022-08-07T07:24:17.201Z,26.67
2022-08-07T07:26:34.473Z,26.70
2022-08-07T07:29:28.522Z,26.62
2022-08-07T07:31:44.660Z,26.57
2022-08-07T07:33:56.904Z,26.66
2022-08-07T07:36:05.543Z,26.35
2022-08-07T07:38:15.686Z,26.45
2022-08-07T07:40:19.081Z,26.72
2022-08-07T07:42:20.820Z,26.84
2022-08-07T07:44:26.111Z,26.70
2022-08-07T07:46:36.533Z,26.87
2022-08-07T07:48:59.947Z,27.14
2022-08-07T07:51:11.055Z,26.74
2022-08-07T07:53:22.980Z,26.81
2022-08-07T07:55:37.711Z,26.40
2022-08-07T07:57:53.245Z,26.59
2022-08-07T07:59:56.479Z,26.61
2022-08-07T08:02:10.234Z,26.56
2022-08-07T08:04:13.294Z,26.82
2022-08-07T08:06:16.352Z,27.01
2022-08-07T08:08:36.322Z,27.22
2022-08-07T08:10:39.934Z,27.31
2022-08-07T08:12:59.219Z,27.37
2022-08-07T08:15:06.872Z,27.63
2022-08-07T08:17:32.443Z,27.72
2022-08-07T08:20:19.716Z,27.64
2022-08-07T08:22:16.095Z,27.67
2022-08-07T08:24:45.340Z,27.68
2022-08-07T08:27:09.322Z,27.90
2022-08-07T08:29:12.830Z,28.19
2022-08-07T08:31:59.179Z,28.42
2022-08-07T08:33:49.453Z,28.48
2022-08-07T08:35:55.874Z,28.13
2022-08-07T08:38:03.171Z,27.86
2022-08-07T08:40:12.348Z,27.92
2022-08-07T08:42:34.265Z,28.19
2022-08-07T08:44:44.946Z,28.25
2022-08-07T08:47:06.049Z,28.26
2022-08-07T08:49:19.214Z,28.43
2022-08-07T08:51:49.767Z,28.17
2022-08-07T08:54:20.403Z,28.44
2022-08-07T08:56:47.358Z,28.47
2022-08-07T08:58:54.507Z,28.40
2022-08-07T09:01:15.962Z,28.55
2022-08-07T09:03:20.622Z,28.15
2022-08-07T09:05:49.086Z,28.48
2022-08-07T09:08:09.022Z,28.82
2022-08-07T09:10:17.572Z,29.12
2022-08-07T09:12:32.250Z,28.85
2022-08-07T09:14:50.755Z,28.53
2022-08-07T09:17:18.296Z,28.85
2022-08-07T09:19:51.963Z,28.96
2022-08-07T09:22:23.006Z,29.09
2022-08-07T09:25:12.014Z,28.88
2022-08-07T09:27:54.621Z,28.43
2022-08-07T09:30:05.361Z,28.61
2022-08-07T09:32:23.527Z,28.85
2022-08-07T09:34:58.447Z,28.71
2022-08-07T09:37:20.994Z,28.73
2022-08-07T09:39:58.174Z,28.89
2022-08-07T09:42:32.940Z,29.14
2022-08-07T09:47:49.423Z,29.21
2022-08-07T09:48:06.338Z,29.20
2022-08-07T09:50:53.504Z,29.44
2022-08-07T09:53:01.100Z,29.29
2022-08-07T09:56:03.122Z,29.48
2022-08-07T09:58:32.168Z,29.66
2022-08-07T10:00:54.120Z,29.57
2022-08-07T10:04:02.884Z,29.82
2022-08-07T10:05:59.177Z,29.68
2022-08-07T10:08:26.643Z,29.63
2022-08-07T10:11:07.763Z,28.73
2022-08-07T10:14:00.220Z,28.64
2022-08-07T10:16:00.684Z,28.62
2022-08-07T10:18:18.306Z,29.01
2022-08-07T10:20:50.185Z,29.16
2022-08-07T10:23:14.123Z,28.98
2022-08-07T10:25:54.155Z,28.80
2022-08-07T10:28:26.902Z,28.48
2022-08-07T10:30:58.885Z,28.27
2022-08-07T10:34:05.600Z,28.14
2022-08-07T10:36:12.713Z,27.95
2022-08-07T10:38:42.218Z,27.94
2022-08-07T10:41:08.896Z,27.91
2022-08-07T10:43:34.479Z,28.23
2022-08-07T10:45:58.407Z,28.41
2022-08-07T10:48:34.875Z,28.09
2022-08-07T10:50:50.336Z,28.13
2022-08-07T10:53:09.057Z,28.29
2022-08-07T10:55:38.650Z,28.24
2022-08-07T10:58:05.844Z,28.04
2022-08-07T11:00:42.802Z,27.76
2022-08-07T11:03:11.331Z,27.71
2022-08-07T11:05:49.129Z,27.56
2022-08-07T11:08:11.777Z,27.42
2022-08-07T11:10:20.350Z,27.39
2022-08-07T11:12:31.628Z,27.53
2022-08-07T11:14:45.764Z,27.74
2022-08-07T11:17:43.327Z,28.19
2022-08-07T11:19:57.885Z,28.71
2022-08-07T11:22:06.535Z,28.67
2022-08-07T11:24:30.740Z,28.88
2022-08-07T11:27:33.693Z,29.06
2022-08-07T11:30:18.673Z,28.79
2022-08-07T11:32:35.690Z,28.66
2022-08-07T11:34:52.012Z,28.51
2022-08-07T11:37:04.994Z,28.61
2022-08-07T11:39:39.716Z,28.73
2022-08-07T11:42:18.826Z,28.91
2022-08-07T11:44:33.243Z,28.70
2022-08-07T11:47:07.067Z,28.32
2022-08-07T11:50:11.507Z,28.28
2022-08-07T11:52:46.949Z,28.11
2022-08-07T11:56:24.928Z,27.83
2022-08-07T11:58:01.605Z,27.91
2022-08-07T12:00:19.032Z,27.91
2022-08-07T12:02:52.125Z,27.98
2022-08-07T12:05:28.654Z,28.39
2022-08-07T12:07:53.432Z,28.57
2022-08-07T12:10:10.258Z,28.82
2022-08-07T12:12:19.212Z,28.95
2022-08-07T12:14:23.889Z,29.00
2022-08-07T12:16:35.400Z,28.88
2022-08-07T12:19:06.748Z,28.62
2022-08-07T12:22:36.191Z,28.57
2022-08-07T12:24:06.828Z,28.45
2022-08-07T12:26:30.037Z,27.96
2022-08-07T12:28:55.600Z,27.85
2022-08-07T12:31:04.099Z,27.78
2022-08-07T12:33:18.681Z,27.90
2022-08-07T12:35:26.821Z,28.03
2022-08-07T12:38:09.739Z,27.78
2022-08-07T12:39:57.523Z,28.12
2022-08-07T12:42:00.108Z,27.69
2022-08-07T12:44:13.102Z,27.71
2022-08-07T12:46:46.149Z,28.25
2022-08-07T12:49:10.020Z,28.49
2022-08-07T12:51:33.390Z,28.21
2022-08-07T12:54:37.180Z,28.29
2022-08-07T12:56:51.227Z,28.23
2022-08-07T12:58:59.679Z,28.35
2022-08-07T13:01:32.616Z,28.23
2022-08-07T13:04:13.638Z,28.21
2022-08-07T13:07:06.850Z,28.47
2022-08-07T13:10:21.958Z,28.30
2022-08-07T13:12:02.712Z,28.22
2022-08-07T13:14:29.199Z,28.49
2022-08-07T13:16:38.587Z,28.67
2022-08-07T13:19:01.867Z,28.77
2022-08-07T13:21:15.224Z,29.15
2022-08-07T13:24:01.926Z,28.83
2022-08-07T13:26:16.057Z,28.57
2022-08-07T13:28:28.045Z,28.89
2022-08-07T13:30:41.343Z,29.13
2022-08-07T13:33:05.833Z,28.94
2022-08-07T13:36:00.584Z,28.60
2022-08-07T13:38:18.142Z,28.81
2022-08-07T13:40:36.819Z,28.95
2022-08-07T13:42:45.820Z,28.90
2022-08-07T13:45:11.462Z,29.18
2022-08-07T13:47:15.070Z,29.42
2022-08-07T13:50:32.540Z,29.72
2022-08-07T13:52:23.057Z,29.87
2022-08-07T13:54:08.075Z,29.83
2022-08-07T13:56:12.268Z,29.23
2022-08-07T13:58:34.496Z,28.88
2022-08-07T14:00:50.378Z,29.05
2022-08-07T14:02:58.746Z,29.22
2022-08-07T14:05:04.579Z,29.18
2022-08-07T14:07:09.557Z,29.13
2022-08-07T14:10:02.890Z,29.07
2022-08-07T14:12:00.974Z,29.04
2022-08-07T14:14:08.782Z,29.23
2022-08-07T14:16:16.124Z,29.38
2022-08-07T14:18:32.756Z,29.26
2022-08-07T14:20:44.570Z,29.46
2022-08-07T14:23:05.154Z,29.55
2022-08-07T14:25:13.334Z,29.67
2022-08-07T14:28:09.447Z,29.32
2022-08-07T14:30:11.106Z,29.28
2022-08-07T14:32:10.627Z,28.97
2022-08-07T14:34:20.521Z,28.67
2022-08-07T14:36:24.330Z,28.74
2022-08-07T14:38:33.438Z,28.77
2022-08-07T14:40:36.384Z,28.67
2022-08-07T14:43:00.882Z,28.64
2022-08-07T14:45:20.904Z,28.54
2022-08-07T14:47:25.194Z,28.32
2022-08-07T14:52:04.843Z,28.45
2022-08-07T14:56:40.821Z,29.23
2022-08-07T14:58:54.945Z,29.67
2022-08-07T15:01:22.375Z,29.75
2022-08-07T15:03:52.294Z,29.73
2022-08-07T15:05:54.863Z,29.76
2022-08-07T15:08:12.525Z,29.82
2022-08-07T15:10:26.878Z,29.89
2022-08-07T15:12:36.699Z,30.01
2022-08-07T15:17:32.676Z,29.67
2022-08-07T15:20:32.951Z,29.79
2022-08-07T15:22:31.052Z,30.20
2022-08-07T15:25:14.125Z,30.50
2022-08-07T15:27:19.745Z,30.72
2022-08-07T15:30:09.146Z,30.92
2022-08-07T15:31:58.088Z,31.09
2022-08-07T15:34:05.347Z,31.20
2022-08-07T15:36:13.972Z,30.83
2022-08-07T15:38:59.196Z,30.78
2022-08-07T15:41:23.713Z,30.96
2022-08-07T15:43:53.850Z,31.29
2022-08-07T15:45:56.587Z,31.51
2022-08-07T15:48:12.709Z,31.75
2022-08-07T15:52:39.926Z,31.99
2022-08-07T15:54:44.582Z,32.00
2022-08-07T15:56:49.962Z,32.14
2022-08-07T15:58:59.231Z,32.06
2022-08-07T16:01:03.527Z,32.03
2022-08-07T16:03:21.697Z,32.01
2022-08-07T16:05:46.389Z,31.97
2022-08-07T16:08:32.552Z,31.88
2022-08-07T16:10:26.765Z,31.83
2022-08-07T16:12:39.233Z,31.77
2022-08-07T16:15:07.478Z,31.68
2022-08-07T16:18:02.062Z,31.75
2022-08-07T16:20:37.733Z,31.93
2022-08-07T16:23:05.126Z,31.98
2022-08-07T16:25:52.513Z,31.76
2022-08-07T16:28:00.415Z,31.68
2022-08-07T16:30:32.058Z,31.43
2022-08-07T16:32:54.609Z,31.11
2022-08-07T16:35:50.331Z,30.77
2022-08-07T16:38:03.512Z,30.47
2022-08-07T16:40:28.371Z,30.28
2022-08-07T16:42:43.162Z,30.11
2022-08-07T16:46:21.341Z,30.05
2022-08-07T16:48:13.436Z,29.87
2022-08-07T16:50:37.026Z,29.67
2022-08-07T16:53:55.566Z,29.47
2022-08-07T16:55:47.004Z,28.10
2022-08-07T16:58:03.931Z,26.80
2022-08-07T17:00:15.075Z,26.24
2022-08-07T17:02:53.026Z,26.23
2022-08-07T17:06:19.975Z,26.09
2022-08-07T17:07:57.937Z,25.94
2022-08-07T17:10:09.254Z,25.88
2022-08-07T17:12:54.059Z,25.70
2022-08-07T17:15:08.763Z,25.67
2022-08-07T17:17:44.137Z,25.57
2022-08-07T17:20:00.912Z,25.49
2022-08-07T17:22:17.297Z,25.43
2022-08-07T17:24:55.793Z,25.18
2022-08-07T17:27:04.850Z,25.31
2022-08-07T17:30:12.878Z,25.32
2022-08-07T17:32:02.944Z,25.42
2022-08-07T17:34:35.462Z,25.45
2022-08-07T17:36:57.725Z,25.45
2022-08-07T17:39:10.472Z,25.62
2022-08-07T17:42:03.475Z,25.81
2022-08-07T17:44:50.099Z,25.96
2022-08-07T17:46:54.924Z,26.07
2022-08-07T17:49:22.894Z,26.11
2022-08-07T17:51:59.848Z,26.08
2022-08-07T17:54:11.649Z,26.11
2022-08-07T17:56:33.302Z,26.21
2022-08-07T17:58:59.834Z,26.23
2022-08-07T18:01:20.519Z,26.36
2022-08-07T18:04:04.379Z,26.45
2022-08-07T18:06:16.647Z,26.54
2022-08-07T18:08:33.620Z,26.64
2022-08-07T18:12:07.855Z,26.66
2022-08-07T18:13:40.572Z,26.70
2022-08-07T18:15:53.749Z,26.66
2022-08-07T18:18:46.500Z,26.46
2022-08-07T18:21:12.397Z,26.23
2022-08-07T18:22:58.045Z,25.93
2022-08-07T18:25:24.131Z,25.86
2022-08-07T18:27:52.670Z,25.94
2022-08-07T18:30:31.186Z,26.13
2022-08-07T18:32:31.636Z,26.18
2022-08-07T18:34:53.229Z,26.10
2022-08-07T18:38:55.110Z,25.93
2022-08-07T18:40:07.039Z,25.72
2022-08-07T18:42:16.367Z,25.67
2022-08-07T18:45:39.530Z,25.66
2022-08-07T18:47:22.493Z,25.57
2022-08-07T18:50:31.268Z,25.59
2022-08-07T18:52:34.873Z,25.54
2022-08-07T18:54:42.492Z,25.46
2022-08-07T18:56:58.378Z,25.49
2022-08-07T18:59:47.981Z,25.66
2022-08-07T19:02:17.944Z,25.86
2022-08-07T19:04:56.181Z,26.01
2022-08-07T19:07:21.120Z,26.12
2022-08-07T19:09:57.159Z,26.22
2022-08-07T19:12:20.390Z,26.28
2022-08-07T19:14:36.620Z,26.34
2022-08-07T19:17:08.063Z,26.36
2022-08-07T19:19:32.745Z,26.43
2022-08-07T19:21:56.263Z,26.40
2022-08-07T19:24:11.348Z,26.45
2022-08-07T19:28:28.642Z,26.45
2022-08-07T19:31:00.910Z,26.38
2022-08-07T19:32:02.306Z,26.14
2022-08-07T19:33:58.055Z,26.03
2022-08-07T19:36:08.896Z,26.04
2022-08-07T19:38:17.122Z,26.10
2022-08-07T19:40:31.846Z,26.11
2022-08-07T19:42:43.116Z,25.97
2022-08-07T19:44:45.743Z,25.83
2022-08-07T19:46:55.650Z,25.84
2022-08-07T19:49:06.178Z,25.80
2022-08-07T19:51:19.417Z,25.83
2022-08-07T19:54:31.809Z,25.79
2022-08-07T19:55:57.800Z,25.83
2022-08-07T19:58:14.189Z,25.75
2022-08-07T20:00:29.049Z,25.60
2022-08-07T20:02:52.105Z,25.57
2022-08-07T20:04:56.492Z,25.26
2022-08-07T20:06:58.566Z,25.12
2022-08-07T20:09:02.904Z,24.93
2022-08-07T20:11:15.164Z,24.88
2022-08-07T20:13:42.000Z,24.64
2022-08-07T20:15:44.543Z,24.69
2022-08-07T20:18:01.611Z,24.66
2022-08-07T20:20:07.817Z,24.67
2022-08-07T20:22:18.479Z,24.55
2022-08-07T20:24:33.023Z,24.55
2022-08-07T20:26:44.762Z,24.46
2022-08-07T20:28:51.392Z,24.31
2022-08-07T20:30:53.766Z,24.23
2022-08-07T20:32:58.252Z,24.21
2022-08-07T20:35:07.880Z,24.26
2022-08-07T20:37:10.894Z,24.31
2022-08-07T20:39:31.069Z,24.25
2022-08-07T20:41:52.502Z,24.26
2022-08-07T20:43:57.442Z,24.16
2022-08-07T20:46:27.697Z,24.15
2022-08-07T20:48:29.894Z,24.07
2022-08-07T20:50:33.496Z,23.93
2022-08-07T20:52:51.516Z,23.89
2022-08-07T20:54:55.468Z,23.98
2022-08-07T20:56:58.511Z,24.08
2022-08-07T20:59:06.556Z,24.20
2022-08-07T21:01:36.520Z,24.13
2022-08-07T21:04:13.371Z,24.18
2022-08-07T21:06:25.546Z,24.12
2022-08-07T21:08:40.899Z,24.15
2022-08-07T21:10:44.497Z,24.17
2022-08-07T21:12:48.887Z,24.08
2022-08-07T21:14:54.501Z,24.04
2022-08-07T21:18:01.819Z,24.13
2022-08-07T21:19:32.273Z,24.17
2022-08-07T21:21:57.070Z,24.27
2022-08-07T21:24:10.436Z,24.41
2022-08-07T21:26:37.079Z,24.52
2022-08-07T21:28:50.062Z,24.55
2022-08-07T21:31:03.419Z,24.58
2022-08-07T21:33:41.795Z,24.59
2022-08-07T21:36:06.033Z,24.62
2022-08-07T21:38:37.931Z,24.66
2022-08-07T21:41:12.664Z,24.66
2022-08-07T21:43:22.813Z,24.68
2022-08-07T21:46:10.705Z,24.69
2022-08-07T21:48:42.614Z,24.65
2022-08-07T21:50:58.089Z,24.63
2022-08-07T21:53:12.801Z,24.61
2022-08-07T21:55:29.962Z,24.55
2022-08-07T21:58:00.025Z,24.57
2022-08-07T22:00:22.834Z,24.53
2022-08-07T22:02:34.554Z,24.51
2022-08-07T22:04:53.830Z,24.50
2022-08-07T22:07:27.520Z,24.52
2022-08-07T22:09:54.451Z,24.52
2022-08-07T22:12:15.753Z,24.50
2022-08-07T22:14:34.923Z,24.43
2022-08-07T22:16:49.818Z,24.43
2022-08-07T22:19:07.549Z,24.43
2022-08-07T22:21:21.823Z,24.22
2022-08-07T22:23:44.944Z,23.54
2022-08-07T22:25:57.974Z,23.21
2022-08-07T22:28:29.957Z,22.90
2022-08-07T22:30:38.926Z,22.88
2022-08-07T22:32:56.371Z,22.86
2022-08-07T22:35:02.276Z,22.99
2022-08-07T22:38:03.155Z,23.18
2022-08-07T22:40:08.567Z,23.34
2022-08-07T22:42:25.510Z,23.44
2022-08-07T22:44:32.622Z,23.55
2022-08-07T22:47:08.666Z,23.47
2022-08-07T22:49:18.231Z,23.15
2022-08-07T22:52:00.609Z,23.17
2022-08-07T22:54:39.359Z,23.18
2022-08-07T22:57:02.788Z,23.15
2022-08-07T22:59:37.271Z,23.20
2022-08-07T23:01:49.804Z,23.31
2022-08-07T23:04:09.021Z,23.44
2022-08-07T23:06:18.922Z,23.50
2022-08-07T23:08:38.133Z,23.56
2022-08-07T23:11:13.258Z,23.57
2022-08-07T23:13:29.483Z,23.61
2022-08-07T23:16:07.181Z,23.65
2022-08-07T23:18:21.118Z,23.66
2022-08-07T23:20:40.510Z,23.69
2022-08-07T23:24:04.559Z,23.72
2022-08-07T23:26:06.463Z,23.71
2022-08-07T23:28:30.674Z,23.73
2022-08-07T23:31:06.446Z,23.77
2022-08-07T23:34:22.731Z,23.75
2022-08-07T23:36:29.216Z,23.77
2022-08-07T23:38:59.137Z,23.78
2022-08-07T23:41:33.087Z,23.79
2022-08-07T23:43:54.447Z,23.78
2022-08-07T23:46:43.012Z,23.74
2022-08-07T23:48:47.764Z,23.73
2022-08-07T23:52:57.089Z,23.75
2022-08-07T23:53:53.639Z,23.80
2022-08-07T23:56:11.806Z,23.79
2022-08-07T23:58:24.707Z,23.80
